Time;durP1;ratioP1;P1;durP2;ratioP2;P2;SDS_P1;SDS_P2;PMS_P1;PMS_P2;Temp;Humidity;BMP_temperature;BMP_pressure;BME280_temperature;BME280_humidity;BME280_pressure;Samples;Min_cycle;Max_cycle;Signal;HPM_P1;HPM_P2
2022/09/22 00:04:25;;;;;;;38.80;32.97;;;22.20;53.20;;;;;;4482096;58;21117;-30
2022/09/22 00:09:26;;;;;;;37.45;32.60;;;22.10;53.10;;;;;;4455944;59;21100;-31
2022/09/22 00:14:27;;;;;;;38.88;33.28;;;22.20;53.20;;;;;;4456820;58;21056;-33
2022/09/22 00:19:32;;;;;;;38.05;32.53;;;22.20;53.20;;;;;;4450406;58;21072;-34
2022/09/22 00:24:33;;;;;;;39.70;33.03;;;22.20;53.30;;;;;;4452924;59;21057;-29
2022/09/22 00:29:35;;;;;;;40.05;32.63;;;22.20;53.30;;;;;;4452121;59;21534;-33
2022/09/22 00:34:36;;;;;;;36.95;31.08;;;22.20;54.00;;;;;;4452829;58;21522;-29
2022/09/22 00:39:38;;;;;;;36.55;31.65;;;22.20;53.60;;;;;;4480108;58;21052;-29
2022/09/22 00:44:41;;;;;;;37.63;31.48;;;22.10;53.30;;;;;;4480042;58;21084;-33
2022/09/22 00:50:21;;;;;;;38.03;30.95;;;22.10;53.30;;;;;;4470156;59;21139;-32
2022/09/22 00:56:27;;;;;;;37.40;31.33;;;22.20;53.40;;;;;;4454988;59;21577;-29
2022/09/22 01:01:28;;;;;;;35.15;29.87;;;22.20;53.40;;;;;;4440345;59;21164;-35
2022/09/22 01:06:29;;;;;;;36.78;31.33;;;22.10;53.30;;;;;;4458957;58;21056;-29
2022/09/22 01:11:31;;;;;;;36.17;30.35;;;22.10;53.40;;;;;;4478323;59;21534;-33
2022/09/22 01:17:29;;;;;;;35.72;30.12;;;22.10;53.40;;;;;;4456517;59;21534;-33
2022/09/22 01:23:36;;;;;;;35.22;30.08;;;22.10;53.40;;;;;;4442009;59;21177;-34
2022/09/22 01:29:02;;;;;;;;;;;22.10;53.40;;;;;;4452616;59;21032;-32
2022/09/22 01:34:18;;;;;;;35.42;30.20;;;22.10;53.40;;;;;;4450510;58;20172;-26
2022/09/22 01:39:33;;;;;;;34.55;28.52;;;22.10;53.40;;;;;;4462059;59;21044;-33
2022/09/22 01:45:12;;;;;;;35.28;29.30;;;22.10;53.50;;;;;;4472506;59;21089;-36
2022/09/22 01:50:41;;;;;;;32.33;27.52;;;22.10;53.50;;;;;;4455824;59;21633;-30
2022/09/22 01:55:51;;;;;;;33.92;28.42;;;22.10;53.50;;;;;;4449130;59;21509;-32
2022/09/22 02:01:06;;;;;;;32.08;26.60;;;22.10;53.50;;;;;;4471237;59;21092;-30
2022/09/22 02:06:21;;;;;;;33.38;27.80;;;22.10;53.50;;;;;;4442067;59;22214;-30
2022/09/22 02:11:22;;;;;;;35.10;29.17;;;22.10;53.50;;;;;;4444288;59;21063;-33
2022/09/22 02:16:26;;;;;;;32.22;27.58;;;22.10;53.60;;;;;;4465436;59;21052;-31
2022/09/22 02:21:28;;;;;;;32.97;27.45;;;22.10;53.60;;;;;;4462828;59;21087;-33
2022/09/22 02:26:34;;;;;;;30.73;25.98;;;22.10;53.60;;;;;;4497162;59;21100;-28
2022/09/22 02:31:37;;;;;;;30.95;26.83;;;22.10;53.60;;;;;;4448885;59;21068;-26
2022/09/22 02:36:57;;;;;;;32.85;27.45;;;22.10;53.60;;;;;;4451655;59;21097;-33
2022/09/22 02:42:30;;;;;;;32.22;27.02;;;22.10;53.70;;;;;;4445691;59;21164;-29
2022/09/22 02:47:41;;;;;;;30.15;26.00;;;22.10;53.70;;;;;;4453542;59;21040;-30
2022/09/22 02:52:42;;;;;;;28.00;24.48;;;22.10;53.70;;;;;;4496666;59;21092;-34
2022/09/22 02:57:44;;;;;;;29.05;25.25;;;22.10;53.70;;;;;;4440179;62;21056;-28
2022/09/22 03:02:44;;;;;;;31.27;24.98;;;22.10;53.70;;;;;;4453198;58;21665;-34
2022/09/22 03:07:45;;;;;;;30.95;26.33;;;22.10;53.70;;;;;;4471272;58;21156;-31
2022/09/22 03:12:46;;;;;;;29.87;25.95;;;22.10;54.40;;;;;;4489206;58;21554;-29
2022/09/22 03:17:47;;;;;;;28.17;24.27;;;22.10;53.80;;;;;;4460196;58;21132;-29
2022/09/22 03:22:48;;;;;;;27.90;24.05;;;22.10;53.80;;;;;;4456140;58;21550;-33
2022/09/22 03:27:49;;;;;;;30.00;25.55;;;22.00;53.80;;;;;;4446711;59;21052;-31
2022/09/22 03:32:50;;;;;;;28.52;24.83;;;22.10;53.90;;;;;;4457293;58;21068;-33
2022/09/22 03:37:51;;;;;;;29.52;25.35;;;22.10;53.90;;;;;;4473733;58;21048;-32
2022/09/22 03:42:52;;;;;;;28.80;23.92;;;22.00;53.90;;;;;;4445536;58;21103;-27
2022/09/22 03:47:53;;;;;;;27.90;24.08;;;22.10;54.00;;;;;;4452184;58;21076;-26
2022/09/22 03:52:55;;;;;;;28.80;23.85;;;22.00;54.00;;;;;;4439058;63;21570;-35
2022/09/22 03:57:56;;;;;;;27.40;23.95;;;22.00;54.00;;;;;;4457429;59;21088;-29
2022/09/22 04:02:58;;;;;;;29.50;24.23;;;22.00;53.90;;;;;;4445591;58;21083;-31
2022/09/22 04:07:58;;;;;;;28.75;24.55;;;22.00;54.00;;;;;;4456376;58;22396;-33
2022/09/22 04:12:59;;;;;;;27.80;23.17;;;22.00;54.10;;;;;;4443895;58;21088;-30
2022/09/22 04:18:00;;;;;;;28.02;22.50;;;22.00;54.10;;;;;;4440631;59;21097;-33
2022/09/22 04:23:01;;;;;;;26.05;22.35;;;22.00;54.20;;;;;;4439346;62;21064;-31
2022/09/22 04:28:03;;;;;;;27.75;22.67;;;22.00;54.10;;;;;;4445039;58;21564;-28
2022/09/22 04:33:03;;;;;;;27.33;23.42;;;22.00;54.20;;;;;;4440421;63;21109;-33
2022/09/22 04:38:04;;;;;;;29.98;23.55;;;22.00;54.20;;;;;;4451511;58;21148;-30
2022/09/22 04:43:05;;;;;;;27.05;22.92;;;22.00;54.20;;;;;;4456420;58;21557;-29
2022/09/22 04:48:06;;;;;;;28.38;21.58;;;22.00;54.80;;;;;;4443673;59;21064;-33
2022/09/22 04:53:06;;;;;;;29.10;23.15;;;22.00;54.10;;;;;;4452479;58;21132;-31
2022/09/22 04:58:08;;;;;;;28.27;22.85;;;22.00;54.10;;;;;;4448594;58;21121;-28
2022/09/22 05:03:11;;;;;;;28.25;23.00;;;22.00;54.10;;;;;;4480581;58;21132;-29
2022/09/22 05:08:12;;;;;;;26.23;22.73;;;22.00;54.00;;;;;;4439439;63;22246;-30
2022/09/22 05:13:14;;;;;;;28.12;22.00;;;22.00;54.00;;;;;;4454945;58;21083;-36
2022/09/22 05:18:15;;;;;;;27.75;22.52;;;22.00;53.90;;;;;;4455276;58;21733;-28
2022/09/22 05:23:15;;;;;;;28.75;23.48;;;22.00;53.90;;;;;;4449937;58;21148;-28
2022/09/22 05:28:16;;;;;;;26.80;21.55;;;22.00;53.90;;;;;;4442650;58;21062;-31
2022/09/22 05:33:18;;;;;;;29.12;23.70;;;22.00;53.80;;;;;;4442108;58;21103;-35
2022/09/22 05:38:18;;;;;;;28.62;23.00;;;22.00;53.80;;;;;;4440219;58;21928;-35
2022/09/22 05:43:19;;;;;;;29.55;22.95;;;21.90;53.70;;;;;;4440351;63;21087;-35
2022/09/22 05:48:20;;;;;;;27.05;21.87;;;22.00;53.70;;;;;;4440524;62;21048;-37
2022/09/22 05:53:21;;;;;;;28.52;23.20;;;21.90;53.60;;;;;;4450491;58;21513;-27
2022/09/22 05:58:22;;;;;;;29.45;23.40;;;21.90;53.60;;;;;;4439501;58;21035;-31
2022/09/22 06:03:24;;;;;;;27.23;21.73;;;21.90;53.60;;;;;;4458613;58;21522;-32
2022/09/22 06:08:25;;;;;;;29.40;22.17;;;21.90;53.50;;;;;;4461889;59;21097;-32
2022/09/22 06:13:25;;;;;;;27.80;22.52;;;21.90;53.50;;;;;;4443411;58;21084;-29
2022/09/22 06:18:26;;;;;;;27.45;22.27;;;21.90;53.50;;;;;;4442392;58;21076;-28
2022/09/22 06:23:27;;;;;;;27.95;22.10;;;21.90;53.50;;;;;;4491050;58;21553;-27
2022/09/22 06:28:28;;;;;;;29.30;23.40;;;21.90;53.50;;;;;;4448291;58;21072;-30
2022/09/22 06:33:29;;;;;;;30.02;22.17;;;21.90;53.50;;;;;;4441274;59;21596;-30
2022/09/22 06:38:30;;;;;;;28.95;22.70;;;21.90;53.40;;;;;;4450636;59;21048;-32
2022/09/22 06:43:33;;;;;;;28.58;23.17;;;21.90;53.40;;;;;;4453870;58;21079;-33
2022/09/22 06:48:34;;;;;;;30.88;23.80;;;21.90;53.40;;;;;;4450029;58;21093;-31
2022/09/22 06:53:34;;;;;;;29.02;23.58;;;22.00;53.40;;;;;;4452373;58;21582;-29
2022/09/22 06:58:36;;;;;;;29.50;23.05;;;22.00;53.50;;;;;;4441086;58;21117;-30
2022/09/22 07:03:40;;;;;;;33.78;25.12;;;22.10;54.30;;;;;;4461470;58;21554;-33
2022/09/22 07:08:41;;;;;;;35.20;25.35;;;22.10;54.20;;;;;;4450953;58;21514;-29
2022/09/22 07:13:44;;;;;;;33.65;25.35;;;22.10;54.30;;;;;;4439863;63;21116;-29
2022/09/22 07:18:47;;;;;;;32.05;25.08;;;22.10;54.30;;;;;;4440156;63;21613;-32
2022/09/22 07:23:49;;;;;;;33.00;25.45;;;22.20;54.40;;;;;;4449522;59;21101;-33
2022/09/22 07:28:52;;;;;;;32.92;25.17;;;22.20;54.60;;;;;;4447724;59;21080;-31
2022/09/22 07:33:53;;;;;;;31.30;24.98;;;22.20;54.50;;;;;;4449196;59;21052;-36
2022/09/22 07:38:57;;;;;;;30.98;25.08;;;22.20;54.70;;;;;;4441130;59;21052;-33
2022/09/22 07:45:11;;;;;;;31.98;25.33;;;22.30;54.70;;;;;;4476721;59;21180;-32
2022/09/22 07:50:13;;;;;;;32.58;25.23;;;22.30;54.70;;;;;;4440651;60;21569;-35
2022/09/22 07:55:14;;;;;;;34.35;26.15;;;22.30;54.80;;;;;;4439749;63;21550;-34
2022/09/22 08:00:15;;;;;;;31.70;25.88;;;22.30;54.80;;;;;;4460005;58;21040;-30
2022/09/22 08:05:16;;;;;;;34.08;27.10;;;22.30;54.90;;;;;;4470191;58;21115;-30
2022/09/22 08:10:18;;;;;;;39.15;28.02;;;22.40;55.10;;;;;;4443724;58;21534;-32
2022/09/22 08:15:21;;;;;;;35.97;27.58;;;22.30;54.80;;;;;;4450496;59;21076;-29
2022/09/22 08:20:27;;;;;;;38.40;28.77;;;22.30;54.80;;;;;;4454485;59;21097;-36
2022/09/22 08:25:29;;;;;;;37.78;30.17;;;22.30;54.70;;;;;;4439755;58;22269;-35
2022/09/22 08:30:30;;;;;;;40.20;30.85;;;22.30;54.70;;;;;;4469459;58;21530;-30
2022/09/22 08:35:33;;;;;;;42.42;33.58;;;22.40;54.70;;;;;;4455365;58;21052;-32
2022/09/22 08:40:34;;;;;;;50.00;37.22;;;22.30;54.50;;;;;;4446810;58;21535;-30
2022/09/22 08:45:43;;;;;;;53.45;40.88;;;22.30;54.40;;;;;;4442521;59;21594;-35
2022/09/22 08:56:40;;;;;;;74.15;51.30;;;22.40;54.30;;;;;;4440437;59;21073;-33
2022/09/22 09:02:24;;;;;;;79.95;55.78;;;22.40;54.20;;;;;;4441803;59;21143;-29
2022/09/22 09:08:15;;;;;;;88.10;59.25;;;22.40;54.10;;;;;;4446229;59;21566;-34
2022/09/22 09:14:40;;;;;;;94.40;62.35;;;22.40;54.10;;;;;;4462044;59;21048;-34
2022/09/22 09:19:54;;;;;;;102.90;65.15;;;22.40;54.00;;;;;;4474603;59;21045;-31
2022/09/22 09:25:08;;;;;;;101.10;67.28;;;22.40;53.90;;;;;;4449419;59;21096;-35
2022/09/22 09:30:16;;;;;;;103.87;70.43;;;22.40;53.90;;;;;;4451735;59;21033;-28
2022/09/22 09:35:35;;;;;;;100.22;69.78;;;22.40;53.80;;;;;;4467481;59;21545;-29
2022/09/22 09:40:36;;;;;;;107.05;67.95;;;22.50;54.00;;;;;;4446090;59;21100;-34
2022/09/22 09:50:36;;;;;;;102.00;71.15;;;22.40;53.90;;;;;;4494434;58;21143;-34
2022/09/22 09:55:37;;;;;;;105.95;71.45;;;22.50;54.00;;;;;;4448508;59;21529;-30
2022/09/22 10:00:58;;;;;;;106.90;74.18;;;22.50;54.30;;;;;;4451238;59;21064;-33
2022/09/22 10:06:05;;;;;;;112.15;76.72;;;22.50;53.90;;;;;;4442243;59;21136;-31
2022/09/22 10:11:06;;;;;;;108.93;75.17;;;22.50;53.90;;;;;;4454531;59;21577;-30
2022/09/22 10:16:22;;;;;;;109.40;76.00;;;22.50;53.90;;;;;;4447314;58;21546;-30
2022/09/22 10:21:24;;;;;;;107.12;78.35;;;22.50;53.90;;;;;;4468079;59;21610;-33
2022/09/22 10:26:32;;;;;;;113.78;79.05;;;22.50;53.90;;;;;;4453318;59;21085;-32
2022/09/22 10:31:36;;;;;;;116.05;82.10;;;22.50;53.90;;;;;;4458986;59;21103;-36
2022/09/22 10:36:44;;;;;;;124.57;86.03;;;22.50;53.90;;;;;;4481781;59;21522;-35
2022/09/22 10:41:47;;;;;;;127.25;89.57;;;22.50;53.90;;;;;;4440500;59;21526;-34
2022/09/22 10:47:39;;;;;;;136.65;92.00;;;22.50;53.80;;;;;;4440945;59;21080;-33
2022/09/22 10:54:21;;;;;;;149.50;99.90;;;22.50;53.80;;;;;;4470356;59;21554;-31
2022/09/22 11:00:02;;;;;;;148.05;98.43;;;22.60;53.70;;;;;;4447808;59;21031;-29
2022/09/22 11:15:12;;;;;;;138.43;95.20;;;22.50;53.60;;;;;;4458109;59;21127;-28
2022/09/22 11:21:31;;;;;;;140.37;93.50;;;22.50;53.40;;;;;;4462446;59;21040;-26
2022/09/22 11:26:47;;;;;;;136.57;92.03;;;22.50;53.20;;;;;;4441006;59;21557;-30
2022/09/22 11:32:06;;;;;;;131.82;90.22;;;22.50;53.10;;;;;;4455466;59;21514;-28
2022/09/22 11:37:33;;;;;;;131.27;88.78;;;22.50;53.00;;;;;;4488462;59;21168;-29
2022/09/22 11:42:46;;;;;;;123.45;86.32;;;22.50;53.00;;;;;;4445175;59;21064;-28
2022/09/22 11:49:31;;;;;;;119.03;86.22;;;22.50;53.00;;;;;;4457146;59;21589;-30
2022/09/22 11:59:48;;;;;;;118.55;85.55;;;22.50;53.10;;;;;;4439801;63;21549;-26
2022/09/22 12:05:01;;;;;;;111.60;78.68;;;22.50;53.10;;;;;;4445153;59;21616;-28
2022/09/22 12:10:12;;;;;;;110.30;75.68;;;22.50;52.90;;;;;;4450191;59;21534;-27
2022/09/22 12:16:32;;;;;;;100.03;73.87;;;22.50;52.70;;;;;;4448169;59;21109;-30
2022/09/22 12:22:16;;;;;;;97.97;72.95;;;22.50;52.70;;;;;;4463211;59;21630;-29
2022/09/22 12:27:25;;;;;;;90.38;67.32;;;22.50;52.60;;;;;;4452739;59;21596;-32
2022/09/22 12:32:49;;;;;;;91.60;65.90;;;22.50;52.50;;;;;;4453458;59;21141;-31
2022/09/22 12:37:52;;;;;;;84.53;62.33;;;22.50;52.40;;;;;;4490887;59;21044;-28
2022/09/22 12:42:54;;;;;;;81.70;58.85;;;22.50;52.30;;;;;;4439599;63;21068;-32
2022/09/22 12:47:56;;;;;;;76.18;57.25;;;22.50;52.00;;;;;;4443033;58;21104;-35
2022/09/22 12:53:30;;;;;;;79.03;57.80;;;22.50;52.20;;;;;;4441767;59;21111;-33
2022/09/22 12:58:41;;;;;;;78.50;55.55;;;22.60;51.70;;;;;;4463213;58;21109;-28
2022/09/22 13:03:50;;;;;;;77.22;52.88;;;22.50;51.90;;;;;;4449726;59;21040;-31
2022/09/22 13:09:23;;;;;;;74.30;54.28;;;22.50;51.70;;;;;;4471188;59;21530;-28
2022/09/22 13:14:55;;;;;;;71.32;51.45;;;22.50;51.70;;;;;;4459806;59;21534;-27
2022/09/22 13:19:56;;;;;;;74.43;52.92;;;22.50;51.60;;;;;;4462502;59;21522;-33
2022/09/22 13:24:57;;;;;;;72.07;50.72;;;22.50;51.30;;;;;;4439358;62;21099;-27
2022/09/22 13:29:58;;;;;;;68.50;49.55;;;22.50;51.50;;;;;;4448307;58;21597;-28
2022/09/22 13:34:59;;;;;;;65.35;47.95;;;22.60;51.50;;;;;;4444557;58;21072;-25
2022/09/22 13:40:00;;;;;;;61.55;45.45;;;22.60;51.30;;;;;;4461119;59;21059;-30
2022/09/22 13:45:17;;;;;;;61.70;44.85;;;22.60;51.90;;;;;;4487996;59;21617;-33
2022/09/22 13:50:20;;;;;;;51.10;38.35;;;22.60;51.10;;;;;;4476096;59;21060;-30
2022/09/22 13:55:32;;;;;;;56.00;39.05;;;22.60;48.10;;;;;;4466250;59;21120;-30
2022/09/22 14:00:41;;;;;;;47.42;38.10;;;22.50;48.80;;;;;;4462698;59;21554;-31
2022/09/22 14:05:43;;;;;;;47.70;37.78;;;22.50;47.70;;;;;;4450572;59;21590;-33
2022/09/22 14:10:45;;;;;;;50.20;39.35;;;22.50;47.90;;;;;;4458731;59;21048;-34
2022/09/22 14:15:47;;;;;;;46.03;37.15;;;22.50;47.80;;;;;;4448557;59;21542;-30
2022/09/22 14:20:48;;;;;;;48.70;37.05;;;22.40;48.10;;;;;;4451839;58;21024;-33
2022/09/22 14:25:49;;;;;;;44.63;34.97;;;22.40;48.30;;;;;;4443408;58;21133;-29
2022/09/22 14:30:50;;;;;;;42.28;33.30;;;22.40;48.50;;;;;;4478132;58;21041;-36
2022/09/22 14:36:00;;;;;;;42.20;33.92;;;22.40;48.70;;;;;;4466530;59;21104;-33
2022/09/22 14:41:01;;;;;;;43.22;33.75;;;22.30;49.30;;;;;;4459501;59;21095;-31
2022/09/22 14:46:35;;;;;;;44.58;34.70;;;22.30;48.80;;;;;;4460272;58;21617;-27
2022/09/22 14:51:36;;;;;;;42.35;32.78;;;22.30;48.90;;;;;;4465236;59;21578;-27
2022/09/22 14:56:42;;;;;;;41.78;34.00;;;22.30;49.20;;;;;;4439889;63;21542;-29
2022/09/22 15:07:24;;;;;;;36.65;31.02;;;22.20;49.40;;;;;;4441883;59;21158;-34
2022/09/22 15:13:38;;;;;;;38.78;32.28;;;22.20;49.40;;;;;;4472793;59;21036;-35
2022/09/22 15:18:39;;;;;;;38.47;30.98;;;22.20;49.60;;;;;;4440190;63;21526;-29
2022/09/22 15:23:46;;;;;;;37.80;30.00;;;22.20;49.70;;;;;;4454856;58;21069;-33
2022/09/22 15:28:48;;;;;;;37.05;31.20;;;22.20;49.80;;;;;;4440607;59;21144;-31
2022/09/22 15:33:49;;;;;;;39.10;30.08;;;22.20;49.90;;;;;;4447255;59;21060;-33
2022/09/22 15:38:56;;;;;;;36.08;29.35;;;22.20;49.90;;;;;;4440476;58;21109;-32
2022/09/22 15:43:57;;;;;;;;;;;22.20;50.00;;;;;;4446962;59;22227;-33
2022/09/22 15:49:01;;;;;;;35.95;30.00;;;22.20;50.00;;;;;;4455454;59;20090;-32
2022/09/22 15:54:05;;;;;;;36.05;29.75;;;22.20;50.10;;;;;;4489394;59;21578;-26
2022/09/22 15:59:07;;;;;;;35.78;30.05;;;22.20;50.10;;;;;;4487790;59;21109;-33
2022/09/22 16:04:08;;;;;;;35.63;28.23;;;22.10;50.10;;;;;;4445184;59;21581;-33
2022/09/22 16:09:15;;;;;;;34.08;28.38;;;22.10;50.10;;;;;;4477550;58;21087;-31
2022/09/22 16:14:16;;;;;;;36.60;29.48;;;22.10;50.10;;;;;;4446436;59;21670;-32
2022/09/22 16:19:17;;;;;;;33.83;28.00;;;22.10;50.20;;;;;;4443561;59;21620;-32
2022/09/22 16:24:21;;;;;;;36.55;29.85;;;22.10;50.20;;;;;;4459216;58;21068;-32
2022/09/22 16:29:22;;;;;;;35.83;29.55;;;22.10;50.30;;;;;;4440305;63;21550;-33
2022/09/22 16:34:23;;;;;;;36.08;30.80;;;22.20;50.40;;;;;;4440403;63;21356;-28
2022/09/22 16:39:24;;;;;;;38.20;30.58;;;22.10;50.30;;;;;;4447013;58;22137;-26
2022/09/22 16:44:25;;;;;;;38.00;30.58;;;22.10;50.40;;;;;;4442573;58;21091;-34
2022/09/22 16:49:27;;;;;;;35.38;29.65;;;22.10;50.40;;;;;;4439721;63;21088;-33
2022/09/22 16:54:27;;;;;;;38.90;31.27;;;22.10;50.20;;;;;;4455929;58;21044;-31
2022/09/22 16:59:28;;;;;;;38.05;31.92;;;22.10;50.50;;;;;;4439936;62;21565;-30
2022/09/22 17:04:31;;;;;;;37.60;32.25;;;22.10;50.60;;;;;;4455449;58;21113;-33
2022/09/22 17:09:32;;;;;;;39.17;31.33;;;22.10;50.70;;;;;;4451960;58;22032;-31
2022/09/22 17:14:35;;;;;;;41.17;32.65;;;22.10;50.60;;;;;;4440659;59;21132;-33
2022/09/22 17:19:36;;;;;;;40.03;32.25;;;22.10;50.70;;;;;;4472240;58;21602;-30
2022/09/22 17:24:37;;;;;;;39.33;31.87;;;22.10;50.70;;;;;;4441360;58;21156;-28
2022/09/22 17:29:38;;;;;;;40.33;32.47;;;22.10;51.30;;;;;;4440382;62;21064;-31
2022/09/22 17:34:39;;;;;;;42.40;33.47;;;22.10;50.70;;;;;;4474689;58;21048;-32
2022/09/22 17:39:42;;;;;;;39.55;33.17;;;22.10;50.70;;;;;;4445397;58;21538;-29
2022/09/22 17:44:43;;;;;;;41.22;33.28;;;22.10;50.80;;;;;;4446684;59;21598;-32
2022/09/22 17:55:15;;;;;;;41.85;33.55;;;22.10;50.80;;;;;;4440069;59;21173;-27
2022/09/22 18:00:21;;;;;;;42.20;33.97;;;22.10;50.90;;;;;;4448155;59;21142;-28
2022/09/22 18:05:25;;;;;;;41.08;32.58;;;22.10;50.90;;;;;;4467661;59;21506;-31
2022/09/22 18:10:31;;;;;;;40.85;33.97;;;22.00;50.90;;;;;;4450164;59;22344;-28
2022/09/22 18:15:32;;;;;;;40.78;33.80;;;22.10;51.00;;;;;;4448063;59;21551;-32
2022/09/22 18:20:33;;;;;;;43.38;36.28;;;22.00;51.00;;;;;;4439654;62;21072;-31
2022/09/22 18:25:34;;;;;;;45.78;36.20;;;22.10;51.00;;;;;;4440043;58;21099;-36
2022/09/22 18:30:35;;;;;;;45.80;35.25;;;22.00;51.00;;;;;;4439698;62;21083;-35
2022/09/22 18:35:36;;;;;;;43.80;36.10;;;22.10;51.10;;;;;;4454095;58;22033;-33
2022/09/22 18:40:37;;;;;;;43.92;35.90;;;22.10;51.20;;;;;;4440446;63;21105;-31
2022/09/22 18:45:38;;;;;;;47.03;36.25;;;22.00;51.20;;;;;;4447766;58;21076;-34
2022/09/22 18:50:38;;;;;;;44.45;36.25;;;22.00;51.20;;;;;;4458895;59;22453;-33
2022/09/22 18:55:39;;;;;;;44.30;34.55;;;22.10;51.40;;;;;;4448087;58;21072;-27
2022/09/22 19:00:40;;;;;;;44.20;35.35;;;22.10;51.30;;;;;;4440234;62;21113;-35
2022/09/22 19:05:41;;;;;;;43.70;35.42;;;22.00;51.30;;;;;;4441112;58;21063;-33
2022/09/22 19:10:42;;;;;;;43.90;34.80;;;22.00;51.40;;;;;;4440432;63;21550;-32
2022/09/22 19:15:43;;;;;;;44.88;36.33;;;22.00;51.50;;;;;;4456864;58;21522;-32
2022/09/22 19:20:44;;;;;;;43.63;34.45;;;22.10;51.50;;;;;;4443946;58;21561;-34
2022/09/22 19:25:46;;;;;;;41.70;35.15;;;22.00;51.50;;;;;;4477548;58;21064;-31
2022/09/22 19:30:47;;;;;;;46.10;37.35;;;22.10;51.60;;;;;;4444720;58;22290;-35
2022/09/22 19:35:48;;;;;;;44.15;35.13;;;22.00;51.70;;;;;;4455655;59;21049;-30
2022/09/22 19:40:48;;;;;;;46.60;36.67;;;22.00;51.70;;;;;;4446266;58;21526;-29
2022/09/22 19:45:51;;;;;;;45.97;37.30;;;22.00;51.70;;;;;;4478791;58;21109;-31
2022/09/22 19:50:52;;;;;;;43.03;34.88;;;22.00;51.70;;;;;;4473711;59;22511;-32
2022/09/22 19:55:53;;;;;;;42.00;34.53;;;22.00;51.80;;;;;;4440806;63;21111;-33
2022/09/22 20:00:54;;;;;;;42.50;35.13;;;22.00;51.80;;;;;;4448209;58;21064;-33
2022/09/22 20:05:55;;;;;;;43.83;35.50;;;22.00;51.90;;;;;;4439566;62;21076;-36
2022/09/22 20:10:55;;;;;;;43.97;35.67;;;22.00;51.90;;;;;;4475249;58;21411;-33
2022/09/22 20:15:59;;;;;;;41.30;34.10;;;22.00;51.90;;;;;;4449179;58;21530;-30
2022/09/22 20:21:03;;;;;;;43.30;34.13;;;22.00;51.90;;;;;;4466585;59;21135;-32
2022/09/22 20:26:04;;;;;;;44.33;36.28;;;22.00;52.00;;;;;;4440330;58;21590;-32
2022/09/22 20:31:10;;;;;;;44.42;35.97;;;22.00;52.00;;;;;;4441389;59;21051;-33
2022/09/22 20:36:15;;;;;;;43.65;35.35;;;22.00;52.00;;;;;;4456462;59;21044;-34
2022/09/22 20:41:21;;;;;;;44.17;34.15;;;22.00;52.00;;;;;;4457683;59;21117;-33
2022/09/22 20:46:22;;;;;;;44.42;34.92;;;22.00;52.10;;;;;;4449136;59;21168;-34
2022/09/22 20:51:23;;;;;;;42.45;34.90;;;22.00;52.10;;;;;;4475180;58;21076;-35
2022/09/22 20:56:23;;;;;;;43.70;35.45;;;22.00;52.20;;;;;;4452767;58;21110;-28
2022/09/22 21:01:25;;;;;;;44.05;35.70;;;22.00;52.10;;;;;;4460530;58;21064;-29
2022/09/22 21:06:26;;;;;;;43.75;34.80;;;22.00;52.20;;;;;;4496595;59;21048;-33
2022/09/22 21:11:28;;;;;;;43.25;34.28;;;22.00;52.20;;;;;;4440260;62;21115;-34
2022/09/22 21:16:29;;;;;;;40.47;34.35;;;22.00;52.20;;;;;;4442763;59;21113;-33
2022/09/22 21:21:32;;;;;;;42.75;33.72;;;22.00;52.20;;;;;;4440174;63;21158;-34
2022/09/22 21:26:32;;;;;;;42.80;34.53;;;21.90;52.10;;;;;;4470889;59;21159;-34
2022/09/22 21:31:33;;;;;;;41.05;34.53;;;21.90;52.10;;;;;;4442148;58;21108;-32
2022/09/22 21:36:34;;;;;;;41.70;33.72;;;21.90;52.20;;;;;;4455295;58;21037;-34
2022/09/22 21:41:35;;;;;;;42.33;34.90;;;21.90;52.10;;;;;;4448769;58;21538;-32
2022/09/22 21:46:39;;;;;;;41.37;33.88;;;21.90;52.10;;;;;;4469058;59;21611;-34
2022/09/22 21:51:42;;;;;;;39.80;33.30;;;21.90;52.20;;;;;;4442671;58;21554;-32
2022/09/22 21:56:44;;;;;;;41.22;33.15;;;21.90;52.20;;;;;;4440181;63;21606;-34
2022/09/22 22:01:45;;;;;;;41.00;34.25;;;21.90;52.20;;;;;;4499887;59;21204;-34
2022/09/22 22:06:46;;;;;;;40.42;33.22;;;21.90;52.20;;;;;;4444470;58;21039;-31
2022/09/22 22:11:49;;;;;;;38.58;32.72;;;21.90;52.30;;;;;;4459647;58;21092;-32
2022/09/22 22:16:52;;;;;;;39.28;32.38;;;21.90;52.30;;;;;;4440626;59;21040;-33
2022/09/22 22:21:54;;;;;;;40.67;33.22;;;21.90;52.30;;;;;;4463368;59;21052;-27
2022/09/22 22:27:05;;;;;;;39.85;31.55;;;21.90;52.30;;;;;;4456768;59;21100;-27
2022/09/22 22:32:08;;;;;;;40.10;32.75;;;21.90;52.30;;;;;;4447446;59;21502;-33
2022/09/22 22:37:09;;;;;;;38.45;32.08;;;21.90;52.30;;;;;;4447779;59;21060;-30
2022/09/22 22:42:10;;;;;;;40.70;31.95;;;21.90;52.30;;;;;;4465075;58;21582;-28
2022/09/22 22:47:11;;;;;;;42.05;32.58;;;21.90;52.20;;;;;;4454166;58;21056;-33
2022/09/22 22:52:12;;;;;;;38.90;31.52;;;21.90;52.40;;;;;;4439780;58;21541;-30
2022/09/22 22:57:13;;;;;;;38.58;30.90;;;21.90;52.40;;;;;;4457594;58;21088;-30
2022/09/22 23:02:14;;;;;;;37.35;31.15;;;21.90;52.40;;;;;;4448550;58;21064;-33
2022/09/22 23:07:15;;;;;;;35.72;29.20;;;21.90;52.40;;;;;;4447746;58;21124;-35
2022/09/22 23:12:17;;;;;;;35.35;29.42;;;21.90;52.40;;;;;;4454154;58;21602;-32
2022/09/22 23:17:18;;;;;;;36.10;29.65;;;21.90;52.40;;;;;;4453945;58;21643;-32
2022/09/22 23:22:19;;;;;;;36.50;29.45;;;21.90;52.40;;;;;;4443711;58;21037;-34
2022/09/22 23:27:20;;;;;;;36.25;30.40;;;21.90;52.40;;;;;;4443020;58;21730;-29
2022/09/22 23:32:22;;;;;;;35.47;29.63;;;21.90;52.40;;;;;;4485332;58;21059;-35
2022/09/22 23:37:23;;;;;;;35.97;30.05;;;21.90;52.40;;;;;;4442794;58;21507;-27
2022/09/22 23:42:24;;;;;;;35.28;28.23;;;21.90;52.40;;;;;;4460850;58;21667;-34
2022/09/22 23:47:25;;;;;;;33.13;27.92;;;21.90;52.40;;;;;;4451153;58;21523;-35
2022/09/22 23:52:26;;;;;;;32.42;27.87;;;21.80;52.40;;;;;;4458641;58;21193;-30
2022/09/22 23:57:27;;;;;;;34.63;28.87;;;21.90;52.40;;;;;;4453319;58;21068;-35
